Celebrity Galaxy — 9HJH9 — position and weather

sailwx.info

Track history (hours):
 
Tides and Currents Weather Stations Pressure Air Temp Water Temp Dewpoint Dewpoint Depression Visibility Wind Speed Wind Dir Waves Ship Positions

Celebrity Galaxy

Last reported at 2019-Jul-22 13:59 UTC. Time now 2019-Jul-22 14:09 UTC.
Position N 59°19' E 018°06'.

Length 262 m; draft 8.5 m.

Type: Passenger vessel. MMSI: 249051000.

Date/timePositionNaut miles runAvg speedWind from/ knotsBaromVisibWave heightAir tempDewpointWater temp
2019-Jul-22 13:59N 59°19' E 018°06'0 0.0
2019-Jul-22 13:27N 59°19' E 018°06'0 0.0
2019-Jul-22 12:53N 59°19' E 018°06'0 0.0
2019-Jul-22 12:29N 59°19' E 018°06'0 0.0
2019-Jul-22 12:00N 59°19' E 018°06'0 0.0
2019-Jul-22 11:24N 59°19' E 018°06'0 0.0
2019-Jul-22 11:00N 59°19' E 018°06'0 0.0
2019-Jul-22 10:29N 59°19' E 018°06'0 0.0
2019-Jul-22 09:59N 59°19' E 018°06'0 0.0
2019-Jul-22 09:26N 59°19' E 018°06'0 0.0
2019-Jul-22 08:56N 59°19' E 018°06'0 0.0
2019-Jul-22 08:29N 59°19' E 018°06'0 0.0
2019-Jul-22 07:59N 59°19' E 018°06'0 0.0
2019-Jul-22 07:29N 59°19' E 018°06'0 0.0
2019-Jul-22 06:59N 59°19' E 018°06'2 3.5
2019-Jul-22 06:31N 59°19' E 018°10'611.8
2019-Jul-22 06:00N 59°23' E 018°19'4 7.9
2019-Jul-22 05:30N 59°23' E 018°27'4 8.6
2019-Jul-22 05:00N 59°27' E 018°26'810.5
2019-Jul-22 04:17N 59°33' E 018°35'3 9.7
2019-Jul-22 04:00N 59°34' E 018°40'712.4
2019-Jul-22 03:29N 59°38' E 018°51'510.4
2019-Jul-22 02:58N 59°41' E 018°59'814.8
2019-Jul-22 02:24N 59°45' E 019°14'714.3
2019-Jul-22 01:56N 59°47' E 019°26'611.3
2019-Jul-22 01:26N 59°47' E 019°38'612.4
2019-Jul-22 00:55N 59°45' E 019°49'712.4
2019-Jul-22 00:21N 59°40' E 019°59'3011.7
2019-Jul-21 21:44N 59°25' E 020°52'312.1
2019-Jul-21 21:30N 59°26' E 020°58'612.9
2019-Jul-21 21:00N 59°27' E 021°10'713.2
2019-Jul-21 20:30N 59°28' E 021°23'713.2
2019-Jul-21 20:01N 59°28' E 021°36'713.4
2019-Jul-21 19:30N 59°29' E 021°49'713.3
2019-Jul-21 19:01N 59°29' E 022°02'714.4
2019-Jul-21 18:30N 59°30' E 022°16'917.7
2019-Jul-21 18:00N 59°32' E 022°33'917.8
2019-Jul-21 17:30N 59°34' E 022°50'917.9
2019-Jul-21 17:00N 59°37' E 023°07'918.1
2019-Jul-21 16:30N 59°39' E 023°24'918.1
2019-Jul-21 16:00N 59°42' E 023°42'1118.2
2019-Jul-21 15:25N 59°45' E 024°02'818.0
2019-Jul-21 14:57N 59°47' E 024°18'817.9
2019-Jul-21 14:30N 59°50' E 024°33'917.7
2019-Jul-21 14:00N 59°56' E 024°45'815.1
2019-Jul-21 13:30N 60°02' E 024°54'612.8
2019-Jul-21 13:00N 60°09' E 024°55'0 0.3
2019-Jul-21 12:28N 60°09' E 024°55'0 0.0
2019-Jul-21 11:58N 60°09' E 024°55'0 0.0
2019-Jul-21 11:30N 60°09' E 024°55'0 0.0
2019-Jul-21 10:58N 60°09' E 024°55'0 0.0
2019-Jul-21 10:30N 60°09' E 024°55'0 0.0
2019-Jul-21 09:57N 60°09' E 024°55'0 0.0
2019-Jul-21 09:30N 60°09' E 024°55'0 0.0
2019-Jul-21 08:58N 60°09' E 024°55'0 0.0
2019-Jul-21 08:30N 60°09' E 024°55'0 0.0
2019-Jul-21 08:00N 60°09' E 024°55'0 0.0
2019-Jul-21 07:29N 60°09' E 024°55'0 0.0
2019-Jul-21 06:54N 60°09' E 024°55'0 0.0
2019-Jul-21 06:27N 60°09' E 024°55'0 0.0
2019-Jul-21 05:59N 60°09' E 024°55'0 0.0
2019-Jul-21 05:29N 60°09' E 024°55'0 0.0
2019-Jul-21 05:00N 60°09' E 024°55'0 0.0
2019-Jul-21 04:30N 60°09' E 024°55'1 2.4
2019-Jul-21 04:00N 60°08' E 024°54'611.0
2019-Jul-21 03:30N 60°02' E 024°54'510.5
2019-Jul-21 03:00N 59°59' E 025°02'713.5
2019-Jul-21 02:30N 59°56' E 025°14'714.7
2019-Jul-21 02:00N 59°55' E 025°29'714.7
2019-Jul-21 01:30N 59°55' E 025°44'815.0
2019-Jul-21 01:00N 59°57' E 025°58'714.8
2019-Jul-21 00:30N 59°59' E 026°12'714.8
2019-Jul-21 00:00N 60°00' E 026°27'714.7
2019-Jul-20 23:30N 60°01' E 026°41'714.9
2019-Jul-20 23:00N 59°60' E 026°56'714.3
2019-Jul-20 22:31N 60°01' E 027°10'815.1
2019-Jul-20 22:00N 60°05' E 027°23'815.1
2019-Jul-20 21:31N 60°09' E 027°36'714.3
2019-Jul-20 21:00N 60°12' E 027°49'715.0
2019-Jul-20 20:30N 60°10' E 028°03'815.1
2019-Jul-20 20:00N 60°08' E 028°18'714.6
2019-Jul-20 19:31N 60°04' E 028°30'714.8
2019-Jul-20 19:01N 60°03' E 028°45'714.8
2019-Jul-20 18:30N 60°02' E 028°60'714.9
2019-Jul-20 18:00N 60°02' E 029°15'812.7
2019-Jul-20 17:24N 60°02' E 029°30'513.0
2019-Jul-20 16:59N 59°60' E 029°40'5 9.6
2019-Jul-20 16:30N 59°58' E 029°48'611.1
2019-Jul-20 16:00N 59°56' E 029°58'5 9.8
2019-Jul-20 15:30N 59°57' E 030°08'2 3.1
2019-Jul-20 14:59N 59°57' E 030°11'0 0.0
2019-Jul-20 14:26N 59°57' E 030°11'0 0.0
2019-Jul-20 13:59N 59°57' E 030°11'0 0.0
2019-Jul-20 13:28N 59°57' E 030°11'0 0.0
2019-Jul-20 13:00N 59°57' E 030°11'0 0.0
2019-Jul-20 12:29N 59°57' E 030°11'0 0.0
2019-Jul-20 12:00N 59°57' E 030°11'0 0.0
2019-Jul-20 11:30N 59°57' E 030°11'0 0.0
2019-Jul-20 10:59N 59°57' E 030°11'0 0.0
2019-Jul-20 10:29N 59°57' E 030°11'0 0.1
2019-Jul-20 09:56N 59°57' E 030°11'0 0.1
2019-Jul-20 09:27N 59°57' E 030°11'0 0.0
2019-Jul-20 09:00N 59°57' E 030°11'0 0.0
2019-Jul-20 08:29N 59°57' E 030°11'0 0.0
2019-Jul-20 07:57N 59°57' E 030°11'0 0.0
2019-Jul-20 07:27N 59°57' E 030°11'0 0.0
2019-Jul-20 07:00N 59°57' E 030°11'0 0.0
2019-Jul-20 06:30N 59°57' E 030°11'0 0.0
2019-Jul-20 06:00N 59°57' E 030°11'0 0.0
2019-Jul-20 05:30N 59°57' E 030°11'0 0.0
2019-Jul-20 04:57N 59°57' E 030°11'0 0.0
2019-Jul-20 04:27N 59°57' E 030°11'0 0.0
2019-Jul-20 04:00N 59°57' E 030°11'0 0.0
2019-Jul-20 03:30N 59°57' E 030°11'0 0.0
2019-Jul-20 02:59N 59°57' E 030°11'0 0.0
2019-Jul-20 02:30N 59°57' E 030°11'0 0.0
2019-Jul-20 02:00N 59°57' E 030°11'0 0.0
2019-Jul-20 01:30N 59°57' E 030°11'0 0.0
2019-Jul-20 00:59N 59°57' E 030°11'0 0.0
2019-Jul-20 00:29N 59°57' E 030°11'0 0.0
2019-Jul-20 00:00N 59°57' E 030°11'0 0.0
2019-Jul-19 23:30N 59°57' E 030°11'0 0.0
2019-Jul-19 23:00N 59°57' E 030°11'0 0.0
2019-Jul-19 22:29N 59°57' E 030°11'0 0.0
2019-Jul-19 21:59N 59°57' E 030°11'0 0.0
2019-Jul-19 21:29N 59°57' E 030°11'0 0.0
2019-Jul-19 21:00N 59°57' E 030°11'0 0.0
2019-Jul-19 20:30N 59°57' E 030°11'0 0.0
2019-Jul-19 19:59N 59°57' E 030°11'0 0.0
2019-Jul-19 19:30N 59°57' E 030°11'0 0.0
2019-Jul-19 18:55N 59°57' E 030°11'0 0.0
2019-Jul-19 18:28N 59°57' E 030°11'0 0.0
2019-Jul-19 17:58N 59°57' E 030°11'0 0.0
2019-Jul-19 17:22N 59°57' E 030°11'0 0.0
2019-Jul-19 16:56N 59°57' E 030°11'0 0.0
2019-Jul-19 16:28N 59°57' E 030°11'0 0.0
2019-Jul-19 16:01N 59°57' E 030°11'0 0.0
2019-Jul-19 15:31N 59°57' E 030°11'0 0.0
2019-Jul-19 15:00N 59°57' E 030°11'0 0.0
2019-Jul-19 14:27N 59°57' E 030°11'0 0.0
2019-Jul-19 14:00N 59°57' E 030°11'0 0.0
2019-Jul-19 13:30N 59°57' E 030°11'0 0.0
2019-Jul-19 13:00N 59°57' E 030°11'0 0.0
2019-Jul-19 12:30N 59°57' E 030°11'0 0.0
2019-Jul-19 12:00N 59°57' E 030°11'0 0.0
2019-Jul-19 11:30N 59°57' E 030°11'0 0.0
2019-Jul-19 11:00N 59°57' E 030°11'0 0.0
2019-Jul-19 10:28N 59°57' E 030°11'0 0.0
2019-Jul-19 09:58N 59°57' E 030°11'0 0.0
2019-Jul-19 09:29N 59°57' E 030°11'0 0.0
2019-Jul-19 09:00N 59°57' E 030°11'0 0.0
2019-Jul-19 08:30N 59°57' E 030°11'0 0.0
2019-Jul-19 07:57N 59°57' E 030°11'0 0.0
2019-Jul-19 07:26N 59°57' E 030°11'0 0.0
2019-Jul-19 06:59N 59°57' E 030°11'0 0.0
2019-Jul-19 06:29N 59°57' E 030°11'0 0.0
2019-Jul-19 05:58N 59°57' E 030°11'0 0.0
2019-Jul-19 05:27N 59°57' E 030°11'0 0.0
2019-Jul-19 05:01N 59°57' E 030°11'0 0.0
2019-Jul-19 04:26N 59°57' E 030°11'0 0.0
2019-Jul-19 03:59N 59°57' E 030°11'0 0.0
2019-Jul-19 03:30N 59°57' E 030°11'2 3.9
2019-Jul-19 03:00N 59°57' E 030°07'4 8.7
2019-Jul-19 02:30N 59°56' E 029°59'510.5
2019-Jul-19 02:01N 59°57' E 029°49'4 8.8
2019-Jul-19 01:30N 59°60' E 029°42'5 9.9
2019-Jul-19 01:00N 60°01' E 029°32'5 9.1
2019-Jul-19 00:29N 60°02' E 029°23'710.8
2019-Jul-18 23:52N 60°02' E 029°09'411.1
2019-Jul-18 23:28N 60°02' E 029°01'612.5
2019-Jul-18 23:00N 60°02' E 028°49'713.6
2019-Jul-18 22:30N 60°02' E 028°35'714.0
2019-Jul-18 22:00N 60°05' E 028°22'714.9
2019-Jul-18 21:30N 60°08' E 028°09'815.1
2019-Jul-18 21:00N 60°10' E 027°54'714.4
2019-Jul-18 20:30N 60°08' E 027°40'714.8
2019-Jul-18 20:00N 60°05' E 027°27'815.6
2019-Jul-18 19:30N 60°01' E 027°13'714.7
2019-Jul-18 19:00N 59°58' E 027°00'815.5
2019-Jul-18 18:30N 59°59' E 026°45'815.1
2019-Jul-18 18:00N 59°58' E 026°30'815.4
2019-Jul-18 17:30N 59°56' E 026°15'2215.4
2019-Jul-18 16:05N 59°50' E 025°34'115.3
2019-Jul-18 16:00N 59°49' E 025°31'815.5
2019-Jul-18 15:30N 59°47' E 025°16'815.9
2019-Jul-18 15:00N 59°44' E 025°02'815.6
2019-Jul-18 14:30N 59°41' E 024°48'713.4
2019-Jul-18 14:00N 59°35' E 024°42'611.5
2019-Jul-18 13:30N 59°29' E 024°46'2 4.4
2019-Jul-18 12:59N 59°27' E 024°46'0 0.0
2019-Jul-18 12:28N 59°27' E 024°46'0 0.0
2019-Jul-18 11:59N 59°27' E 024°46'0 0.0
2019-Jul-18 11:29N 59°27' E 024°46'0 0.0
2019-Jul-18 10:58N 59°27' E 024°46'0 0.0
2019-Jul-18 10:30N 59°27' E 024°46'0 0.0
2019-Jul-18 10:00N 59°27' E 024°46'0 0.0
2019-Jul-18 09:30N 59°27' E 024°46'0 0.0
2019-Jul-18 08:59N 59°27' E 024°46'0 0.0
2019-Jul-18 08:28N 59°27' E 024°46'0 0.0
2019-Jul-18 07:58N 59°27' E 024°46'0 0.0
2019-Jul-18 07:30N 59°27' E 024°46'0 0.0
2019-Jul-18 06:57N 59°27' E 024°46'0 0.0
2019-Jul-18 06:30N 59°27' E 024°46'0 0.0
2019-Jul-18 06:00N 59°27' E 024°46'0 0.0
2019-Jul-18 05:29N 59°27' E 024°46'0 0.0
2019-Jul-18 04:58N 59°27' E 024°46'0 0.0
2019-Jul-18 04:30N 59°27' E 024°46'0 0.0
2019-Jul-18 03:59N 59°27' E 024°46'0 0.0
2019-Jul-18 03:30N 59°27' E 024°46'0 0.0
2019-Jul-18 03:01N 59°27' E 024°46'3 5.6
2019-Jul-18 02:31N 59°30' E 024°44'713.8
2019-Jul-18 02:00N 59°30' E 024°31'816.9
2019-Jul-18 01:31N 59°30' E 024°14'918.8
2019-Jul-18 01:01N 59°30' E 023°56'918.7
2019-Jul-18 00:30N 59°30' E 023°37'918.8
2019-Jul-18 00:01N 59°29' E 023°19'919.0
2019-Jul-17 23:31N 59°28' E 023°00'918.8
2019-Jul-17 23:01N 59°26' E 022°42'918.5
2019-Jul-17 22:30N 59°22' E 022°26'918.5
2019-Jul-17 22:00N 59°17' E 022°11'918.1
2019-Jul-17 21:31N 59°11' E 021°57'714.7
2019-Jul-17 21:00N 59°06' E 021°47'714.7
2019-Jul-17 20:31N 59°00' E 021°38'814.9
2019-Jul-17 20:00N 58°54' E 021°29'715.0
2019-Jul-17 19:31N 58°48' E 021°21'1815.0
2019-Jul-17 18:20N 58°34' E 021°01'20316.6
2019-Jul-17 06:07N 56°03' E 016°48'318.6
2019-Jul-17 05:57N 56°02' E 016°44'818.5
2019-Jul-17 05:31N 55°57' E 016°32'918.6
2019-Jul-17 05:01N 55°52' E 016°17'918.5
2019-Jul-17 04:31N 55°48' E 016°03'918.5
2019-Jul-17 04:01N 55°43' E 015°49'918.3
2019-Jul-17 03:30N 55°39' E 015°34'918.2
2019-Jul-17 03:01N 55°35' E 015°19'918.2
2019-Jul-17 02:30N 55°31' E 015°05'1018.2
2019-Jul-17 01:59N 55°27' E 014°50'1318.0
2019-Jul-17 01:16N 55°19' E 014°32'518.2
2019-Jul-17 01:00N 55°15' E 014°27'917.9
2019-Jul-17 00:31N 55°08' E 014°17'917.9
2019-Jul-17 00:01N 55°01' E 014°08'918.5
2019-Jul-16 23:30N 54°58' E 013°52'1618.3
2019-Jul-16 22:39N 54°53' E 013°26'317.7
2019-Jul-16 22:30N 54°53' E 013°22'918.2
2019-Jul-16 22:00N 54°50' E 013°07'918.4
2019-Jul-16 21:30N 54°47' E 012°52'1617.9
2019-Jul-16 20:37N 54°39' E 012°28'218.3
2019-Jul-16 20:28N 54°37' E 012°24'817.5
2019-Jul-16 20:00N 54°31' E 012°16'1716.1
2019-Jul-16 18:57N 54°24' E 011°49'819.0
2019-Jul-16 18:30N 54°28' E 011°36'918.8
2019-Jul-16 18:01N 54°32' E 011°21'918.6
2019-Jul-16 17:31N 54°35' E 011°06'918.2
2019-Jul-16 17:01N 54°35' E 010°51'918.4
2019-Jul-16 16:30N 54°33' E 010°35'917.2
2019-Jul-16 16:00N 54°30' E 010°21'713.7
2019-Jul-16 15:31N 54°25' E 010°13'510.4
2019-Jul-16 15:00N 54°20' E 010°10'1 1.9
2019-Jul-16 14:29N 54°20' E 010°09'0 0.0
2019-Jul-16 13:59N 54°20' E 010°09'0 0.0
2019-Jul-16 13:30N 54°20' E 010°09'0 0.0
2019-Jul-16 12:59N 54°20' E 010°09'0 0.0
2019-Jul-16 12:29N 54°20' E 010°09'0 0.0
2019-Jul-16 11:59N 54°20' E 010°09'0 0.0
2019-Jul-16 11:27N 54°20' E 010°09'0 0.0
2019-Jul-16 10:59N 54°20' E 010°09'0 0.0
2019-Jul-16 10:28N 54°20' E 010°09'0 0.0
2019-Jul-16 09:57N 54°20' E 010°09'0 0.0
2019-Jul-16 09:27N 54°20' E 010°09'0 0.0
2019-Jul-16 09:00N 54°20' E 010°09'0 0.0
2019-Jul-16 08:30N 54°20' E 010°09'0 0.0
2019-Jul-16 08:00N 54°20' E 010°09'0 0.0
2019-Jul-16 07:30N 54°20' E 010°09'0 0.0
2019-Jul-16 07:00N 54°20' E 010°09'0 0.0
2019-Jul-16 06:30N 54°20' E 010°09'0 0.0
2019-Jul-16 06:00N 54°20' E 010°09'0 0.6
2019-Jul-16 05:31N 54°20' E 010°09'4 7.7
2019-Jul-16 05:00N 54°23' E 010°12'713.3
2019-Jul-16 04:30N 54°29' E 010°16'611.6
2019-Jul-16 04:00N 54°32' E 010°25'612.2
2019-Jul-16 03:31N 54°35' E 010°35'612.0
2019-Jul-16 03:01N 54°37' E 010°44'612.1
2019-Jul-16 02:31N 54°41' E 010°52'612.1
2019-Jul-16 02:01N 54°47' E 010°52'612.4
2019-Jul-16 01:31N 54°54' E 010°53'612.4
2019-Jul-16 01:01N 54°58' E 010°59'612.2
2019-Jul-16 00:30N 55°04' E 011°02'612.7
2019-Jul-16 00:00N 55°11' E 011°04'611.3
2019-Jul-15 23:30N 55°16' E 011°04'1114.4
2019-Jul-15 22:44N 55°27' E 010°57'2414.9
2019-Jul-15 21:07N 55°50' E 010°50'1418.5
2019-Jul-15 20:23N 56°01' E 011°04'6417.6
2019-Jul-15 16:44N 57°02' E 011°41'419.5
2019-Jul-15 16:30N 57°06' E 011°39'1019.4
2019-Jul-15 16:00N 57°15' E 011°31'1019.0
2019-Jul-15 15:30N 57°24' E 011°26'918.3
2019-Jul-15 15:00N 57°32' E 011°16'918.9
2019-Jul-15 14:30N 57°37' E 011°01'918.2
2019-Jul-15 14:00N 57°42' E 010°47'612.2
2019-Jul-15 13:30N 57°43' E 010°35'0 0.0
2019-Jul-15 12:48N 57°43' E 010°35'0 0.0
2019-Jul-15 12:30N 57°43' E 010°35'0 0.0
2019-Jul-15 11:52N 57°43' E 010°35'0 0.0
2019-Jul-15 11:28N 57°43' E 010°35'0 0.0
2019-Jul-15 10:58N 57°43' E 010°35'0 0.0
2019-Jul-15 10:28N 57°43' E 010°35'0 0.0
2019-Jul-15 09:58N 57°43' E 010°35'0 0.0
2019-Jul-15 09:30N 57°43' E 010°35'0 0.0
2019-Jul-15 08:57N 57°43' E 010°35'0 0.0
2019-Jul-15 08:30N 57°43' E 010°35'0 0.0
2019-Jul-15 07:59N 57°43' E 010°35'0 0.0
2019-Jul-15 07:29N 57°43' E 010°35'0 0.0
2019-Jul-15 06:59N 57°43' E 010°35'0 0.0
2019-Jul-15 06:29N 57°43' E 010°35'0 0.0
2019-Jul-15 05:59N 57°43' E 010°35'0 0.0
2019-Jul-15 05:29N 57°43' E 010°35'610.6
2019-Jul-15 04:57N 57°44' E 010°45'611.4
2019-Jul-15 04:29N 57°43' E 010°35'0 0.0
2019-Jul-15 03:59N 57°43' E 010°35'0 0.0
2019-Jul-15 03:29N 57°43' E 010°35'0 0.0
2019-Jul-15 02:59N 57°43' E 010°35'0 0.0
2019-Jul-15 02:29N 57°43' E 010°35'0 0.0
2019-Jul-15 01:57N 57°43' E 010°35'0 0.0
2019-Jul-15 01:30N 57°43' E 010°35'0 0.0
2019-Jul-15 00:59N 57°43' E 010°35'0 0.0
2019-Jul-15 00:28N 57°43' E 010°35'0 0.0
2019-Jul-15 00:00N 57°43' E 010°35'0 0.0
2019-Jul-14 23:30N 57°43' E 010°35'0 0.0
2019-Jul-14 23:00N 57°43' E 010°35'0 0.0
2019-Jul-14 22:30N 57°43' E 010°35'0 0.0
2019-Jul-14 22:00N 57°43' E 010°35'0 0.0
2019-Jul-14 21:29N 57°43' E 010°35'0 0.0
2019-Jul-14 20:57N 57°43' E 010°35'0 0.0
2019-Jul-14 20:30N 57°43' E 010°35'0 0.0
2019-Jul-14 20:00N 57°43' E 010°35'0 0.0
2019-Jul-14 19:28N 57°43' E 010°35'0 0.0
2019-Jul-14 19:00N 57°43' E 010°35'0 0.6
2019-Jul-14 18:30N 57°43' E 010°36'5 9.0
2019-Jul-14 18:00N 57°44' E 010°44'4 8.7
2019-Jul-14 17:30N 57°48' E 010°43'612.9
2019-Jul-14 17:00N 57°49' E 010°31'712.9
2019-Jul-14 16:30N 57°48' E 010°18'612.8
2019-Jul-14 16:00N 57°48' E 010°07'713.8
2019-Jul-14 15:30N 57°47' E 009°54'917.1
2019-Jul-14 14:59N 57°45' E 009°38'918.9
2019-Jul-14 14:30N 57°43' E 009°21'1019.2
2019-Jul-14 14:00N 57°40' E 009°04'1019.0
2019-Jul-14 13:30N 57°37' E 008°47'1019.0
2019-Jul-14 13:00N 57°34' E 008°30'919.2
2019-Jul-14 12:30N 57°32' E 008°13'1019.1
2019-Jul-14 12:00N 57°29' E 007°56'918.7
2019-Jul-14 11:30N 57°26' E 007°39'918.5
2019-Jul-14 11:00N 57°22' E 007°23'918.1
2019-Jul-14 10:30N 57°18' E 007°09'917.9
2019-Jul-14 10:00N 57°15' E 006°53'917.6
2019-Jul-14 09:30N 57°13' E 006°37'917.4
2019-Jul-14 09:00N 57°11' E 006°21'917.8
2019-Jul-14 08:30N 57°10' E 006°05'917.6
2019-Jul-14 08:00N 57°08' E 005°49'917.6
2019-Jul-14 07:30N 57°06' E 005°34'917.4
2019-Jul-14 07:00N 57°03' E 005°18'917.6
2019-Jul-14 06:30N 57°01' E 005°03'917.7
2019-Jul-14 06:00N 56°58' E 004°47'917.9
2019-Jul-14 05:30N 56°56' E 004°32'918.0
2019-Jul-14 05:00N 56°53' E 004°16'918.1
2019-Jul-14 04:30N 56°51' E 003°60'918.2
2019-Jul-14 04:00N 56°48' E 003°44'918.1
2019-Jul-14 03:30N 56°45' E 003°28'918.1
2019-Jul-14 03:00N 56°42' E 003°13'1017.4
2019-Jul-14 02:25N 56°36' E 002°59'1717.7
2019-Jul-14 01:26N 56°22' E 002°39'1017.5
2019-Jul-14 00:51N 56°16' E 002°24'13118.4
2019-Jul-13 17:44N 55°09' W 000°55'419.1
2019-Jul-13 17:30N 55°07' W 001°01'1019.0
2019-Jul-13 17:00N 55°02' W 001°16'612.0
2019-Jul-13 16:30N 55°00' W 001°26'1 2.6
2019-Jul-13 16:00N 54°59' W 001°27'0 0.7
2019-Jul-13 15:30N 54°60' W 001°27'0 0.0
2019-Jul-13 15:00N 54°60' W 001°27'0 0.0
2019-Jul-13 14:30N 54°60' W 001°27'0 0.0
2019-Jul-13 14:00N 54°60' W 001°27'0 0.0
2019-Jul-13 13:30N 54°60' W 001°27'0 0.0
2019-Jul-13 13:00N 54°60' W 001°27'0 0.0
2019-Jul-13 12:30N 54°60' W 001°27'0 0.0
2019-Jul-13 11:59N 54°60' W 001°27'0 0.0
2019-Jul-13 11:29N 54°60' W 001°27'0 0.0
2019-Jul-13 10:59N 54°60' W 001°27'0 0.0
2019-Jul-13 10:29N 54°60' W 001°27'0 0.0
2019-Jul-13 09:59N 54°60' W 001°27'0 0.0
2019-Jul-13 09:29N 54°60' W 001°27'0 0.0
2019-Jul-13 09:01N 54°60' W 001°27'0 0.0
2019-Jul-13 08:28N 54°60' W 001°27'0 0.0
2019-Jul-13 07:55N 54°60' W 001°27'0 0.0
2019-Jul-13 07:28N 54°60' W 001°27'0 0.0
2019-Jul-13 06:58N 54°60' W 001°27'0 0.0
2019-Jul-13 06:28N 54°60' W 001°27'0 0.0
2019-Jul-13 05:55N 54°60' W 001°27'0 0.0
2019-Jul-13 05:28N 54°60' W 001°27'0 0.0
2019-Jul-13 05:00N 54°60' W 001°27'2 4.5
2019-Jul-13 04:30N 55°01' W 001°24'612.3
2019-Jul-13 04:01N 55°04' W 001°15'714.5
2019-Jul-13 03:31N 55°11' W 001°11'815.0
2019-Jul-13 03:01N 55°18' W 001°07'1415.1
2019-Jul-13 02:06N 55°31' W 000°59'2115.1
2019-Jul-13 00:41N 55°52' W 000°48'8715.2
2019-Jul-12 18:57N 57°15' E 000°01'714.9
2019-Jul-12 18:28N 57°21' E 000°04'1014.7
2019-Jul-12 17:49N 57°31' E 000°09'514.6
2019-Jul-12 17:29N 57°35' E 000°12'714.6
2019-Jul-12 16:58N 57°42' E 000°16'714.7
2019-Jul-12 16:30N 57°49' E 000°20'814.6
2019-Jul-12 15:58N 57°56' E 000°24'1314.7
2019-Jul-12 15:07N 58°08' E 000°32'314.8
2019-Jul-12 14:54N 58°12' E 000°33'814.8
2019-Jul-12 14:22N 58°19' E 000°35'514.8
2019-Jul-12 14:00N 58°25' E 000°36'  
Track history (hours):
 
Tides and Currents Weather Stations Pressure Air Temp Water Temp Dewpoint Dewpoint Depression Visibility Wind Speed Wind Dir Waves Ship Positions

Celebrity Galaxy

Last reported at 2019-Jul-22 13:59 UTC. Time now 2019-Jul-22 14:09 UTC.
Position N 59°19' E 018°06'.

Length 262 m; draft 8.5 m.

Type: Passenger vessel. MMSI: 249051000.

Date/timePositionNaut miles runAvg speedWind from/ knotsBaromVisibWave heightAir tempDewpointWater temp
2019-Jul-22 13:59N 59°19' E 018°06'0 0.0
2019-Jul-22 13:27N 59°19' E 018°06'0 0.0
2019-Jul-22 12:53N 59°19' E 018°06'0 0.0
2019-Jul-22 12:29N 59°19' E 018°06'0 0.0
2019-Jul-22 12:00N 59°19' E 018°06'0 0.0
2019-Jul-22 11:24N 59°19' E 018°06'0 0.0
2019-Jul-22 11:00N 59°19' E 018°06'0 0.0
2019-Jul-22 10:29N 59°19' E 018°06'0 0.0
2019-Jul-22 09:59N 59°19' E 018°06'0 0.0
2019-Jul-22 09:26N 59°19' E 018°06'0 0.0
2019-Jul-22 08:56N 59°19' E 018°06'0 0.0
2019-Jul-22 08:29N 59°19' E 018°06'0 0.0
2019-Jul-22 07:59N 59°19' E 018°06'0 0.0
2019-Jul-22 07:29N 59°19' E 018°06'0 0.0
2019-Jul-22 06:59N 59°19' E 018°06'2 3.5
2019-Jul-22 06:31N 59°19' E 018°10'611.8
2019-Jul-22 06:00N 59°23' E 018°19'4 7.9
2019-Jul-22 05:30N 59°23' E 018°27'4 8.6
2019-Jul-22 05:00N 59°27' E 018°26'810.5
2019-Jul-22 04:17N 59°33' E 018°35'3 9.7
2019-Jul-22 04:00N 59°34' E 018°40'712.4
2019-Jul-22 03:29N 59°38' E 018°51'510.4
2019-Jul-22 02:58N 59°41' E 018°59'814.8
2019-Jul-22 02:24N 59°45' E 019°14'714.3
2019-Jul-22 01:56N 59°47' E 019°26'611.3
2019-Jul-22 01:26N 59°47' E 019°38'612.4
2019-Jul-22 00:55N 59°45' E 019°49'712.4
2019-Jul-22 00:21N 59°40' E 019°59'3011.7
2019-Jul-21 21:44N 59°25' E 020°52'312.1
2019-Jul-21 21:30N 59°26' E 020°58'612.9
2019-Jul-21 21:00N 59°27' E 021°10'713.2
2019-Jul-21 20:30N 59°28' E 021°23'713.2
2019-Jul-21 20:01N 59°28' E 021°36'713.4
2019-Jul-21 19:30N 59°29' E 021°49'713.3
2019-Jul-21 19:01N 59°29' E 022°02'714.4
2019-Jul-21 18:30N 59°30' E 022°16'917.7
2019-Jul-21 18:00N 59°32' E 022°33'917.8
2019-Jul-21 17:30N 59°34' E 022°50'917.9
2019-Jul-21 17:00N 59°37' E 023°07'918.1
2019-Jul-21 16:30N 59°39' E 023°24'918.1
2019-Jul-21 16:00N 59°42' E 023°42'1118.2
2019-Jul-21 15:25N 59°45' E 024°02'818.0
2019-Jul-21 14:57N 59°47' E 024°18'817.9
2019-Jul-21 14:30N 59°50' E 024°33'917.7
2019-Jul-21 14:00N 59°56' E 024°45'815.1
2019-Jul-21 13:30N 60°02' E 024°54'612.8
2019-Jul-21 13:00N 60°09' E 024°55'0 0.3
2019-Jul-21 12:28N 60°09' E 024°55'0 0.0
2019-Jul-21 11:58N 60°09' E 024°55'0 0.0
2019-Jul-21 11:30N 60°09' E 024°55'0 0.0
2019-Jul-21 10:58N 60°09' E 024°55'0 0.0
2019-Jul-21 10:30N 60°09' E 024°55'0 0.0
2019-Jul-21 09:57N 60°09' E 024°55'0 0.0
2019-Jul-21 09:30N 60°09' E 024°55'0 0.0
2019-Jul-21 08:58N 60°09' E 024°55'0 0.0
2019-Jul-21 08:30N 60°09' E 024°55'0 0.0
2019-Jul-21 08:00N 60°09' E 024°55'0 0.0
2019-Jul-21 07:29N 60°09' E 024°55'0 0.0
2019-Jul-21 06:54N 60°09' E 024°55'0 0.0
2019-Jul-21 06:27N 60°09' E 024°55'0 0.0
2019-Jul-21 05:59N 60°09' E 024°55'0 0.0
2019-Jul-21 05:29N 60°09' E 024°55'0 0.0
2019-Jul-21 05:00N 60°09' E 024°55'0 0.0
2019-Jul-21 04:30N 60°09' E 024°55'1 2.4
2019-Jul-21 04:00N 60°08' E 024°54'611.0
2019-Jul-21 03:30N 60°02' E 024°54'510.5
2019-Jul-21 03:00N 59°59' E 025°02'713.5
2019-Jul-21 02:30N 59°56' E 025°14'714.7
2019-Jul-21 02:00N 59°55' E 025°29'714.7
2019-Jul-21 01:30N 59°55' E 025°44'815.0
2019-Jul-21 01:00N 59°57' E 025°58'714.8
2019-Jul-21 00:30N 59°59' E 026°12'714.8
2019-Jul-21 00:00N 60°00' E 026°27'714.7
2019-Jul-20 23:30N 60°01' E 026°41'714.9
2019-Jul-20 23:00N 59°60' E 026°56'714.3
2019-Jul-20 22:31N 60°01' E 027°10'815.1
2019-Jul-20 22:00N 60°05' E 027°23'815.1
2019-Jul-20 21:31N 60°09' E 027°36'714.3
2019-Jul-20 21:00N 60°12' E 027°49'715.0
2019-Jul-20 20:30N 60°10' E 028°03'815.1
2019-Jul-20 20:00N 60°08' E 028°18'714.6
2019-Jul-20 19:31N 60°04' E 028°30'714.8
2019-Jul-20 19:01N 60°03' E 028°45'714.8
2019-Jul-20 18:30N 60°02' E 028°60'714.9
2019-Jul-20 18:00N 60°02' E 029°15'812.7
2019-Jul-20 17:24N 60°02' E 029°30'513.0
2019-Jul-20 16:59N 59°60' E 029°40'5 9.6
2019-Jul-20 16:30N 59°58' E 029°48'611.1
2019-Jul-20 16:00N 59°56' E 029°58'5 9.8
2019-Jul-20 15:30N 59°57' E 030°08'2 3.1
2019-Jul-20 14:59N 59°57' E 030°11'0 0.0
2019-Jul-20 14:26N 59°57' E 030°11'0 0.0
2019-Jul-20 13:59N 59°57' E 030°11'0 0.0
2019-Jul-20 13:28N 59°57' E 030°11'0 0.0
2019-Jul-20 13:00N 59°57' E 030°11'0 0.0
2019-Jul-20 12:29N 59°57' E 030°11'0 0.0
2019-Jul-20 12:00N 59°57' E 030°11'0 0.0
2019-Jul-20 11:30N 59°57' E 030°11'0 0.0
2019-Jul-20 10:59N 59°57' E 030°11'0 0.0
2019-Jul-20 10:29N 59°57' E 030°11'0 0.1
2019-Jul-20 09:56N 59°57' E 030°11'0 0.1
2019-Jul-20 09:27N 59°57' E 030°11'0 0.0
2019-Jul-20 09:00N 59°57' E 030°11'0 0.0
2019-Jul-20 08:29N 59°57' E 030°11'0 0.0
2019-Jul-20 07:57N 59°57' E 030°11'0 0.0
2019-Jul-20 07:27N 59°57' E 030°11'0 0.0
2019-Jul-20 07:00N 59°57' E 030°11'0 0.0
2019-Jul-20 06:30N 59°57' E 030°11'0 0.0
2019-Jul-20 06:00N 59°57' E 030°11'0 0.0
2019-Jul-20 05:30N 59°57' E 030°11'0 0.0
2019-Jul-20 04:57N 59°57' E 030°11'0 0.0
2019-Jul-20 04:27N 59°57' E 030°11'0 0.0
2019-Jul-20 04:00N 59°57' E 030°11'0 0.0
2019-Jul-20 03:30N 59°57' E 030°11'0 0.0
2019-Jul-20 02:59N 59°57' E 030°11'0 0.0
2019-Jul-20 02:30N 59°57' E 030°11'0 0.0
2019-Jul-20 02:00N 59°57' E 030°11'0 0.0
2019-Jul-20 01:30N 59°57' E 030°11'0 0.0
2019-Jul-20 00:59N 59°57' E 030°11'0 0.0
2019-Jul-20 00:29N 59°57' E 030°11'0 0.0
2019-Jul-20 00:00N 59°57' E 030°11'0 0.0
2019-Jul-19 23:30N 59°57' E 030°11'0 0.0
2019-Jul-19 23:00N 59°57' E 030°11'0 0.0
2019-Jul-19 22:29N 59°57' E 030°11'0 0.0
2019-Jul-19 21:59N 59°57' E 030°11'0 0.0
2019-Jul-19 21:29N 59°57' E 030°11'0 0.0
2019-Jul-19 21:00N 59°57' E 030°11'0 0.0
2019-Jul-19 20:30N 59°57' E 030°11'0 0.0
2019-Jul-19 19:59N 59°57' E 030°11'0 0.0
2019-Jul-19 19:30N 59°57' E 030°11'0 0.0
2019-Jul-19 18:55N 59°57' E 030°11'0 0.0
2019-Jul-19 18:28N 59°57' E 030°11'0 0.0
2019-Jul-19 17:58N 59°57' E 030°11'0 0.0
2019-Jul-19 17:22N 59°57' E 030°11'0 0.0
2019-Jul-19 16:56N 59°57' E 030°11'0 0.0
2019-Jul-19 16:28N 59°57' E 030°11'0 0.0
2019-Jul-19 16:01N 59°57' E 030°11'0 0.0
2019-Jul-19 15:31N 59°57' E 030°11'0 0.0
2019-Jul-19 15:00N 59°57' E 030°11'0 0.0
2019-Jul-19 14:27N 59°57' E 030°11'0 0.0
2019-Jul-19 14:00N 59°57' E 030°11'0 0.0
2019-Jul-19 13:30N 59°57' E 030°11'0 0.0
2019-Jul-19 13:00N 59°57' E 030°11'0 0.0
2019-Jul-19 12:30N 59°57' E 030°11'0 0.0
2019-Jul-19 12:00N 59°57' E 030°11'0 0.0
2019-Jul-19 11:30N 59°57' E 030°11'0 0.0
2019-Jul-19 11:00N 59°57' E 030°11'0 0.0
2019-Jul-19 10:28N 59°57' E 030°11'0 0.0
2019-Jul-19 09:58N 59°57' E 030°11'0 0.0
2019-Jul-19 09:29N 59°57' E 030°11'0 0.0
2019-Jul-19 09:00N 59°57' E 030°11'0 0.0
2019-Jul-19 08:30N 59°57' E 030°11'0 0.0
2019-Jul-19 07:57N 59°57' E 030°11'0 0.0
2019-Jul-19 07:26N 59°57' E 030°11'0 0.0
2019-Jul-19 06:59N 59°57' E 030°11'0 0.0
2019-Jul-19 06:29N 59°57' E 030°11'0 0.0
2019-Jul-19 05:58N 59°57' E 030°11'0 0.0
2019-Jul-19 05:27N 59°57' E 030°11'0 0.0
2019-Jul-19 05:01N 59°57' E 030°11'0 0.0
2019-Jul-19 04:26N 59°57' E 030°11'0 0.0
2019-Jul-19 03:59N 59°57' E 030°11'0 0.0
2019-Jul-19 03:30N 59°57' E 030°11'2 3.9
2019-Jul-19 03:00N 59°57' E 030°07'4 8.7
2019-Jul-19 02:30N 59°56' E 029°59'510.5
2019-Jul-19 02:01N 59°57' E 029°49'4 8.8
2019-Jul-19 01:30N 59°60' E 029°42'5 9.9
2019-Jul-19 01:00N 60°01' E 029°32'5 9.1
2019-Jul-19 00:29N 60°02' E 029°23'710.8
2019-Jul-18 23:52N 60°02' E 029°09'411.1
2019-Jul-18 23:28N 60°02' E 029°01'612.5
2019-Jul-18 23:00N 60°02' E 028°49'713.6
2019-Jul-18 22:30N 60°02' E 028°35'714.0
2019-Jul-18 22:00N 60°05' E 028°22'714.9
2019-Jul-18 21:30N 60°08' E 028°09'815.1
2019-Jul-18 21:00N 60°10' E 027°54'714.4
2019-Jul-18 20:30N 60°08' E 027°40'714.8
2019-Jul-18 20:00N 60°05' E 027°27'815.6
2019-Jul-18 19:30N 60°01' E 027°13'714.7
2019-Jul-18 19:00N 59°58' E 027°00'815.5
2019-Jul-18 18:30N 59°59' E 026°45'815.1
2019-Jul-18 18:00N 59°58' E 026°30'815.4
2019-Jul-18 17:30N 59°56' E 026°15'2215.4
2019-Jul-18 16:05N 59°50' E 025°34'115.3
2019-Jul-18 16:00N 59°49' E 025°31'815.5
2019-Jul-18 15:30N 59°47' E 025°16'815.9
2019-Jul-18 15:00N 59°44' E 025°02'815.6
2019-Jul-18 14:30N 59°41' E 024°48'713.4
2019-Jul-18 14:00N 59°35' E 024°42'611.5
2019-Jul-18 13:30N 59°29' E 024°46'2 4.4
2019-Jul-18 12:59N 59°27' E 024°46'0 0.0
2019-Jul-18 12:28N 59°27' E 024°46'0 0.0
2019-Jul-18 11:59N 59°27' E 024°46'0 0.0
2019-Jul-18 11:29N 59°27' E 024°46'0 0.0
2019-Jul-18 10:58N 59°27' E 024°46'0 0.0
2019-Jul-18 10:30N 59°27' E 024°46'0 0.0
2019-Jul-18 10:00N 59°27' E 024°46'0 0.0
2019-Jul-18 09:30N 59°27' E 024°46'0 0.0
2019-Jul-18 08:59N 59°27' E 024°46'0 0.0
2019-Jul-18 08:28N 59°27' E 024°46'0 0.0
2019-Jul-18 07:58N 59°27' E 024°46'0 0.0
2019-Jul-18 07:30N 59°27' E 024°46'0 0.0
2019-Jul-18 06:57N 59°27' E 024°46'0 0.0
2019-Jul-18 06:30N 59°27' E 024°46'0 0.0
2019-Jul-18 06:00N 59°27' E 024°46'0 0.0
2019-Jul-18 05:29N 59°27' E 024°46'0 0.0
2019-Jul-18 04:58N 59°27' E 024°46'0 0.0
2019-Jul-18 04:30N 59°27' E 024°46'0 0.0
2019-Jul-18 03:59N 59°27' E 024°46'0 0.0
2019-Jul-18 03:30N 59°27' E 024°46'0 0.0
2019-Jul-18 03:01N 59°27' E 024°46'3 5.6
2019-Jul-18 02:31N 59°30' E 024°44'713.8
2019-Jul-18 02:00N 59°30' E 024°31'816.9
2019-Jul-18 01:31N 59°30' E 024°14'918.8
2019-Jul-18 01:01N 59°30' E 023°56'918.7
2019-Jul-18 00:30N 59°30' E 023°37'918.8
2019-Jul-18 00:01N 59°29' E 023°19'919.0
2019-Jul-17 23:31N 59°28' E 023°00'918.8
2019-Jul-17 23:01N 59°26' E 022°42'918.5
2019-Jul-17 22:30N 59°22' E 022°26'918.5
2019-Jul-17 22:00N 59°17' E 022°11'918.1
2019-Jul-17 21:31N 59°11' E 021°57'714.7
2019-Jul-17 21:00N 59°06' E 021°47'714.7
2019-Jul-17 20:31N 59°00' E 021°38'814.9
2019-Jul-17 20:00N 58°54' E 021°29'715.0
2019-Jul-17 19:31N 58°48' E 021°21'1815.0
2019-Jul-17 18:20N 58°34' E 021°01'20316.6
2019-Jul-17 06:07N 56°03' E 016°48'318.6
2019-Jul-17 05:57N 56°02' E 016°44'818.5
2019-Jul-17 05:31N 55°57' E 016°32'918.6
2019-Jul-17 05:01N 55°52' E 016°17'918.5
2019-Jul-17 04:31N 55°48' E 016°03'918.5
2019-Jul-17 04:01N 55°43' E 015°49'918.3
2019-Jul-17 03:30N 55°39' E 015°34'918.2
2019-Jul-17 03:01N 55°35' E 015°19'918.2
2019-Jul-17 02:30N 55°31' E 015°05'1018.2
2019-Jul-17 01:59N 55°27' E 014°50'1318.0
2019-Jul-17 01:16N 55°19' E 014°32'518.2
2019-Jul-17 01:00N 55°15' E 014°27'917.9
2019-Jul-17 00:31N 55°08' E 014°17'917.9
2019-Jul-17 00:01N 55°01' E 014°08'918.5
2019-Jul-16 23:30N 54°58' E 013°52'1618.3
2019-Jul-16 22:39N 54°53' E 013°26'317.7
2019-Jul-16 22:30N 54°53' E 013°22'918.2
2019-Jul-16 22:00N 54°50' E 013°07'918.4
2019-Jul-16 21:30N 54°47' E 012°52'1617.9
2019-Jul-16 20:37N 54°39' E 012°28'218.3
2019-Jul-16 20:28N 54°37' E 012°24'817.5
2019-Jul-16 20:00N 54°31' E 012°16'1716.1
2019-Jul-16 18:57N 54°24' E 011°49'819.0
2019-Jul-16 18:30N 54°28' E 011°36'918.8
2019-Jul-16 18:01N 54°32' E 011°21'918.6
2019-Jul-16 17:31N 54°35' E 011°06'918.2
2019-Jul-16 17:01N 54°35' E 010°51'918.4
2019-Jul-16 16:30N 54°33' E 010°35'917.2
2019-Jul-16 16:00N 54°30' E 010°21'713.7
2019-Jul-16 15:31N 54°25' E 010°13'510.4
2019-Jul-16 15:00N 54°20' E 010°10'1 1.9
2019-Jul-16 14:29N 54°20' E 010°09'0 0.0
2019-Jul-16 13:59N 54°20' E 010°09'0 0.0
2019-Jul-16 13:30N 54°20' E 010°09'0 0.0
2019-Jul-16 12:59N 54°20' E 010°09'0 0.0
2019-Jul-16 12:29N 54°20' E 010°09'0 0.0
2019-Jul-16 11:59N 54°20' E 010°09'0 0.0
2019-Jul-16 11:27N 54°20' E 010°09'0 0.0
2019-Jul-16 10:59N 54°20' E 010°09'0 0.0
2019-Jul-16 10:28N 54°20' E 010°09'0 0.0
2019-Jul-16 09:57N 54°20' E 010°09'0 0.0
2019-Jul-16 09:27N 54°20' E 010°09'0 0.0
2019-Jul-16 09:00N 54°20' E 010°09'0 0.0
2019-Jul-16 08:30N 54°20' E 010°09'0 0.0
2019-Jul-16 08:00N 54°20' E 010°09'0 0.0
2019-Jul-16 07:30N 54°20' E 010°09'0 0.0
2019-Jul-16 07:00N 54°20' E 010°09'0 0.0
2019-Jul-16 06:30N 54°20' E 010°09'0 0.0
2019-Jul-16 06:00N 54°20' E 010°09'0 0.6
2019-Jul-16 05:31N 54°20' E 010°09'4 7.7
2019-Jul-16 05:00N 54°23' E 010°12'713.3
2019-Jul-16 04:30N 54°29' E 010°16'611.6
2019-Jul-16 04:00N 54°32' E 010°25'612.2
2019-Jul-16 03:31N 54°35' E 010°35'612.0
2019-Jul-16 03:01N 54°37' E 010°44'612.1
2019-Jul-16 02:31N 54°41' E 010°52'612.1
2019-Jul-16 02:01N 54°47' E 010°52'612.4
2019-Jul-16 01:31N 54°54' E 010°53'612.4
2019-Jul-16 01:01N 54°58' E 010°59'612.2
2019-Jul-16 00:30N 55°04' E 011°02'612.7
2019-Jul-16 00:00N 55°11' E 011°04'611.3
2019-Jul-15 23:30N 55°16' E 011°04'1114.4
2019-Jul-15 22:44N 55°27' E 010°57'2414.9
2019-Jul-15 21:07N 55°50' E 010°50'1418.5
2019-Jul-15 20:23N 56°01' E 011°04'6417.6
2019-Jul-15 16:44N 57°02' E 011°41'419.5
2019-Jul-15 16:30N 57°06' E 011°39'1019.4
2019-Jul-15 16:00N 57°15' E 011°31'1019.0
2019-Jul-15 15:30N 57°24' E 011°26'918.3
2019-Jul-15 15:00N 57°32' E 011°16'918.9
2019-Jul-15 14:30N 57°37' E 011°01'918.2
2019-Jul-15 14:00N 57°42' E 010°47'612.2
2019-Jul-15 13:30N 57°43' E 010°35'0 0.0
2019-Jul-15 12:48N 57°43' E 010°35'0 0.0
2019-Jul-15 12:30N 57°43' E 010°35'0 0.0
2019-Jul-15 11:52N 57°43' E 010°35'0 0.0
2019-Jul-15 11:28N 57°43' E 010°35'0 0.0
2019-Jul-15 10:58N 57°43' E 010°35'0 0.0
2019-Jul-15 10:28N 57°43' E 010°35'0 0.0
2019-Jul-15 09:58N 57°43' E 010°35'0 0.0
2019-Jul-15 09:30N 57°43' E 010°35'0 0.0
2019-Jul-15 08:57N 57°43' E 010°35'0 0.0
2019-Jul-15 08:30N 57°43' E 010°35'0 0.0
2019-Jul-15 07:59N 57°43' E 010°35'0 0.0
2019-Jul-15 07:29N 57°43' E 010°35'0 0.0
2019-Jul-15 06:59N 57°43' E 010°35'0 0.0
2019-Jul-15 06:29N 57°43' E 010°35'0 0.0
2019-Jul-15 05:59N 57°43' E 010°35'0 0.0
2019-Jul-15 05:29N 57°43' E 010°35'610.6
2019-Jul-15 04:57N 57°44' E 010°45'611.4
2019-Jul-15 04:29N 57°43' E 010°35'0 0.0
2019-Jul-15 03:59N 57°43' E 010°35'0 0.0
2019-Jul-15 03:29N 57°43' E 010°35'0 0.0
2019-Jul-15 02:59N 57°43' E 010°35'0 0.0
2019-Jul-15 02:29N 57°43' E 010°35'0 0.0
2019-Jul-15 01:57N 57°43' E 010°35'0 0.0
2019-Jul-15 01:30N 57°43' E 010°35'0 0.0
2019-Jul-15 00:59N 57°43' E 010°35'0 0.0
2019-Jul-15 00:28N 57°43' E 010°35'0 0.0
2019-Jul-15 00:00N 57°43' E 010°35'0 0.0
2019-Jul-14 23:30N 57°43' E 010°35'0 0.0
2019-Jul-14 23:00N 57°43' E 010°35'0 0.0
2019-Jul-14 22:30N 57°43' E 010°35'0 0.0
2019-Jul-14 22:00N 57°43' E 010°35'0 0.0
2019-Jul-14 21:29N 57°43' E 010°35'0 0.0
2019-Jul-14 20:57N 57°43' E 010°35'0 0.0
2019-Jul-14 20:30N 57°43' E 010°35'0 0.0
2019-Jul-14 20:00N 57°43' E 010°35'0 0.0
2019-Jul-14 19:28N 57°43' E 010°35'0 0.0
2019-Jul-14 19:00N 57°43' E 010°35'0 0.6
2019-Jul-14 18:30N 57°43' E 010°36'5 9.0
2019-Jul-14 18:00N 57°44' E 010°44'4 8.7
2019-Jul-14 17:30N 57°48' E 010°43'612.9
2019-Jul-14 17:00N 57°49' E 010°31'712.9
2019-Jul-14 16:30N 57°48' E 010°18'612.8
2019-Jul-14 16:00N 57°48' E 010°07'713.8
2019-Jul-14 15:30N 57°47' E 009°54'917.1
2019-Jul-14 14:59N 57°45' E 009°38'918.9
2019-Jul-14 14:30N 57°43' E 009°21'1019.2
2019-Jul-14 14:00N 57°40' E 009°04'1019.0
2019-Jul-14 13:30N 57°37' E 008°47'1019.0
2019-Jul-14 13:00N 57°34' E 008°30'919.2
2019-Jul-14 12:30N 57°32' E 008°13'1019.1
2019-Jul-14 12:00N 57°29' E 007°56'918.7
2019-Jul-14 11:30N 57°26' E 007°39'918.5
2019-Jul-14 11:00N 57°22' E 007°23'918.1
2019-Jul-14 10:30N 57°18' E 007°09'917.9
2019-Jul-14 10:00N 57°15' E 006°53'917.6
2019-Jul-14 09:30N 57°13' E 006°37'917.4
2019-Jul-14 09:00N 57°11' E 006°21'917.8
2019-Jul-14 08:30N 57°10' E 006°05'917.6
2019-Jul-14 08:00N 57°08' E 005°49'917.6
2019-Jul-14 07:30N 57°06' E 005°34'917.4
2019-Jul-14 07:00N 57°03' E 005°18'917.6
2019-Jul-14 06:30N 57°01' E 005°03'917.7
2019-Jul-14 06:00N 56°58' E 004°47'917.9
2019-Jul-14 05:30N 56°56' E 004°32'918.0
2019-Jul-14 05:00N 56°53' E 004°16'918.1
2019-Jul-14 04:30N 56°51' E 003°60'918.2
2019-Jul-14 04:00N 56°48' E 003°44'918.1
2019-Jul-14 03:30N 56°45' E 003°28'918.1
2019-Jul-14 03:00N 56°42' E 003°13'1017.4
2019-Jul-14 02:25N 56°36' E 002°59'1717.7
2019-Jul-14 01:26N 56°22' E 002°39'1017.5
2019-Jul-14 00:51N 56°16' E 002°24'13118.4
2019-Jul-13 17:44N 55°09' W 000°55'419.1
2019-Jul-13 17:30N 55°07' W 001°01'1019.0
2019-Jul-13 17:00N 55°02' W 001°16'612.0
2019-Jul-13 16:30N 55°00' W 001°26'1 2.6
2019-Jul-13 16:00N 54°59' W 001°27'0 0.7
2019-Jul-13 15:30N 54°60' W 001°27'0 0.0
2019-Jul-13 15:00N 54°60' W 001°27'0 0.0
2019-Jul-13 14:30N 54°60' W 001°27'0 0.0
2019-Jul-13 14:00N 54°60' W 001°27'0 0.0
2019-Jul-13 13:30N 54°60' W 001°27'0 0.0
2019-Jul-13 13:00N 54°60' W 001°27'0 0.0
2019-Jul-13 12:30N 54°60' W 001°27'0 0.0
2019-Jul-13 11:59N 54°60' W 001°27'0 0.0
2019-Jul-13 11:29N 54°60' W 001°27'0 0.0
2019-Jul-13 10:59N 54°60' W 001°27'0 0.0
2019-Jul-13 10:29N 54°60' W 001°27'0 0.0
2019-Jul-13 09:59N 54°60' W 001°27'0 0.0
2019-Jul-13 09:29N 54°60' W 001°27'0 0.0
2019-Jul-13 09:01N 54°60' W 001°27'0 0.0
2019-Jul-13 08:28N 54°60' W 001°27'0 0.0
2019-Jul-13 07:55N 54°60' W 001°27'0 0.0
2019-Jul-13 07:28N 54°60' W 001°27'0 0.0
2019-Jul-13 06:58N 54°60' W 001°27'0 0.0
2019-Jul-13 06:28N 54°60' W 001°27'0 0.0
2019-Jul-13 05:55N 54°60' W 001°27'0 0.0
2019-Jul-13 05:28N 54°60' W 001°27'0 0.0
2019-Jul-13 05:00N 54°60' W 001°27'2 4.5
2019-Jul-13 04:30N 55°01' W 001°24'612.3
2019-Jul-13 04:01N 55°04' W 001°15'714.5
2019-Jul-13 03:31N 55°11' W 001°11'815.0
2019-Jul-13 03:01N 55°18' W 001°07'1415.1
2019-Jul-13 02:06N 55°31' W 000°59'2115.1
2019-Jul-13 00:41N 55°52' W 000°48'8715.2
2019-Jul-12 18:57N 57°15' E 000°01'714.9
2019-Jul-12 18:28N 57°21' E 000°04'1014.7
2019-Jul-12 17:49N 57°31' E 000°09'514.6
2019-Jul-12 17:29N 57°35' E 000°12'714.6
2019-Jul-12 16:58N 57°42' E 000°16'714.7
2019-Jul-12 16:30N 57°49' E 000°20'814.6
2019-Jul-12 15:58N 57°56' E 000°24'1314.7
2019-Jul-12 15:07N 58°08' E 000°32'314.8
2019-Jul-12 14:54N 58°12' E 000°33'814.8
2019-Jul-12 14:22N 58°19' E 000°35'514.8
2019-Jul-12 14:00N 58°25' E 000°36'  

Dump ship's entire track history